Time,TemperatureF,DewpointF,PressureIn,WindDirection,WindDirectionDegrees,WindSpeedMPH,WindSpeedGustMPH,Humidity,HourlyPrecipIn,Conditions,Clouds,dailyrainin,SoftwareType,DateUTC
2013-08-02 09:12:00,69.3,50.0,29.80,WNW,284,0.0,2.2,50,0.00,,,0.00,WUHU216WMR968SP,2013-08-02 13:12:00,
2013-08-02 09:13:00,69.3,50.0,29.80,WNW,298,0.0,2.7,50,0.00,,,0.00,WUHU216WMR968SP,2013-08-02 13:13:00,
2013-08-02 09:18:00,70.7,51.8,29.80,West,272,0.0,4.0,49,0.00,,,0.00,WUHU216WMR968SP,2013-08-02 13:18:00,
2013-08-02 09:23:00,72.5,51.8,29.80,WNW,296,2.2,4.0,45,0.00,,,0.00,WUHU216WMR968SP,2013-08-02 13:23:00,
2013-08-02 09:28:00,73.2,44.6,29.80,WNW,283,2.7,4.0,36,0.00,,,0.00,WUHU216WMR968SP,2013-08-02 13:28:00,
2013-08-02 09:33:00,75.4,44.6,29.80,WNW,291,0.0,4.0,34,0.00,,,0.00,WUHU216WMR968SP,2013-08-02 13:33:00,
2013-08-02 09:38:00,77.2,44.6,29.80,West,281,2.7,4.0,31,0.00,,,0.00,WUHU216WMR968SP,2013-08-02 13:38:00,
2013-08-02 09:43:00,77.5,42.8,29.80,WNW,288,0.0,4.5,29,0.00,,,0.00,WUHU216WMR968SP,2013-08-02 13:43:00,
2013-08-02 09:48:00,78.3,44.6,29.80,WNW,298,0.0,4.5,30,0.00,,,0.00,WUHU216WMR968SP,2013-08-02 13:48:00,
2013-08-02 09:53:00,83.3,48.2,29.80,WNW,294,2.7,4.9,28,0.00,,,0.00,WUHU216WMR968SP,2013-08-02 13:53:00,
2013-08-02 09:58:00,86.7,33.8,29.80,WNW,283,3.6,6.3,16,0.00,,,0.00,WUHU216WMR968SP,2013-08-02 13:58:00,
2013-08-02 10:03:00,87.6,35.6,29.80,West,271,2.7,6.3,16,0.00,,,0.00,WUHU216WMR968SP,2013-08-02 14:03:00,
2013-08-02 10:08:00,87.1,30.2,29.80,WNW,295,0.0,5.4,13,0.00,,,0.00,WUHU216WMR968SP,2013-08-02 14:08:00,
2013-08-02 10:13:00,87.1,26.0,29.80,NW,317,0.0,5.4,11,0.00,,,0.00,WUHU216WMR968SP,2013-08-02 14:13:00,
2013-08-02 10:18:00,85.6,29.0,29.80,WNW,302,0.0,5.4,13,0.00,,,0.00,WUHU216WMR968SP,2013-08-02 14:18:00,
2013-08-02 10:23:00,86.5,29.7,29.80,NNW,344,2.2,5.4,13,0.00,,,0.00,WUHU216WMR968SP,2013-08-02 14:23:00,
2013-08-02 10:28:00,85.8,25.0,29.80,NNW,339,0.0,5.4,11,0.00,,,0.00,WUHU216WMR968SP,2013-08-02 14:28:00,
2013-08-02 10:33:00,83.7,29.3,29.80,NW,316,0.0,4.0,14,0.00,,,0.00,WUHU216WMR968SP,2013-08-02 14:33:00,
2013-08-02 10:38:00,81.5,35.6,29.80,NW,323,2.7,4.9,19,0.00,,,0.00,WUHU216WMR968SP,2013-08-02 14:38:00,
2013-08-02 10:43:00,81.0,35.6,29.80,NNW,335,0.0,5.8,20,0.00,,,0.00,WUHU216WMR968SP,2013-08-02 14:43:00,
2013-08-02 10:48:00,84.6,35.6,29.80,NNW,341,0.0,5.8,18,0.00,,,0.00,WUHU216WMR968SP,2013-08-02 14:48:00,
2013-08-02 10:53:00,84.2,33.8,29.80,WNW,301,0.0,5.8,16,0.00,,,0.00,WUHU216WMR968SP,2013-08-02 14:53:00,
2013-08-02 10:58:00,82.8,35.6,29.80,NNW,331,0.0,5.4,19,0.00,,,0.00,WUHU216WMR968SP,2013-08-02 14:58:00,
2013-08-02 11:03:00,81.9,35.6,29.80,WNW,297,0.0,4.9,19,0.00,,,0.00,WUHU216WMR968SP,2013-08-02 15:03:00,
2013-08-02 11:08:00,81.1,35.6,29.80,West,279,0.0,4.9,20,0.00,,,0.00,WUHU216WMR968SP,2013-08-02 15:08:00,
2013-08-02 11:13:00,81.7,37.4,29.77,WNW,288,0.0,4.0,20,0.00,,,0.00,WUHU216WMR968SP,2013-08-02 15:13:00,
2013-08-02 11:18:00,81.7,37.4,29.77,NW,308,0.0,4.0,20,0.00,,,0.00,WUHU216WMR968SP,2013-08-02 15:18:00,
2013-08-02 11:23:00,82.6,35.6,29.77,West,264,0.0,4.9,19,0.00,,,0.00,WUHU216WMR968SP,2013-08-02 15:23:00,
2013-08-02 11:28:00,80.2,37.4,29.80,NNW,339,3.6,5.8,21,0.00,,,0.00,WUHU216WMR968SP,2013-08-02 15:28:00,
2013-08-02 11:33:00,81.3,35.6,29.80,NW,325,2.2,6.3,20,0.00,,,0.00,WUHU216WMR968SP,2013-08-02 15:33:00,
2013-08-02 11:38:00,81.9,37.4,29.80,NNW,327,0.0,6.3,20,0.00,,,0.00,WUHU216WMR968SP,2013-08-02 15:38:00,
2013-08-02 11:43:00,80.2,37.4,29.80,NNW,331,2.7,6.3,21,0.00,,,0.00,WUHU216WMR968SP,2013-08-02 15:43:00,
2013-08-02 11:48:00,80.4,37.4,29.80,West,280,0.0,6.3,21,0.00,,,0.00,WUHU216WMR968SP,2013-08-02 15:48:00,
2013-08-02 11:53:00,81.3,35.6,29.80,WNW,298,0.0,5.4,20,0.00,,,0.00,WUHU216WMR968SP,2013-08-02 15:53:00,
2013-08-02 11:58:00,82.4,35.6,29.80,NW,305,2.7,5.4,19,0.00,,,0.00,WUHU216WMR968SP,2013-08-02 15:58:00,
2013-08-02 12:03:00,82.0,35.6,29.80,WNW,284,2.2,4.9,19,0.00,,,0.00,WUHU216WMR968SP,2013-08-02 16:03:00,
2013-08-02 12:08:00,81.1,35.6,29.80,NW,321,2.2,5.4,20,0.00,,,0.00,WUHU216WMR968SP,2013-08-02 16:08:00,
2013-08-02 12:13:00,80.8,35.6,29.80,North,357,0.0,5.4,20,0.00,,,0.00,WUHU216WMR968SP,2013-08-02 16:13:00,
2013-08-02 12:18:00,81.0,35.6,29.80,West,274,2.7,6.3,20,0.00,,,0.00,WUHU216WMR968SP,2013-08-02 16:18:00,
2013-08-02 12:23:00,81.1,35.6,29.80,NNW,333,0.0,6.3,20,0.00,,,0.00,WUHU216WMR968SP,2013-08-02 16:23:00,
2013-08-02 12:28:00,80.4,35.6,29.80,WNW,297,0.0,4.0,20,0.00,,,0.00,WUHU216WMR968SP,2013-08-02 16:28:00,
2013-08-02 12:33:00,80.1,35.6,29.80,NW,306,0.0,4.0,20,0.00,,,0.00,WUHU216WMR968SP,2013-08-02 16:33:00,
2013-08-02 12:38:00,80.4,35.6,29.80,WNW,284,0.0,3.6,20,0.00,,,0.00,WUHU216WMR968SP,2013-08-02 16:38:00,
2013-08-02 12:43:00,81.7,37.4,29.80,WNW,286,3.6,5.4,20,0.00,,,0.00,WUHU216WMR968SP,2013-08-02 16:43:00,
2013-08-02 12:48:00,82.4,32.0,29.80,NNW,327,0.0,5.4,16,0.00,,,0.00,WUHU216WMR968SP,2013-08-02 16:48:00,
2013-08-02 12:53:00,82.4,32.0,29.80,WNW,298,0.0,3.6,16,0.00,,,0.00,WUHU216WMR968SP,2013-08-02 16:53:00,
2013-08-02 12:58:00,82.0,33.8,29.80,NW,307,2.2,4.0,17,0.00,,,0.00,WUHU216WMR968SP,2013-08-02 16:58:00,
2013-08-02 13:03:00,82.4,32.0,29.80,NW,316,0.0,6.3,16,0.00,,,0.00,WUHU216WMR968SP,2013-08-02 17:03:00,
2013-08-02 13:08:00,82.0,35.6,29.80,WNW,303,0.0,6.3,19,0.00,,,0.00,WUHU216WMR968SP,2013-08-02 17:08:00,
2013-08-02 13:13:00,82.0,33.8,29.80,West,281,3.1,5.8,17,0.00,,,0.00,WUHU216WMR968SP,2013-08-02 17:13:00,
2013-08-02 13:18:00,82.4,32.0,29.80,NW,304,0.0,5.8,16,0.00,,,0.00,WUHU216WMR968SP,2013-08-02 17:18:00,
2013-08-02 13:23:00,82.9,28.7,29.80,WNW,294,3.1,5.4,14,0.00,,,0.00,WUHU216WMR968SP,2013-08-02 17:23:00,
2013-08-02 13:28:00,83.3,23.0,29.80,NW,309,2.2,5.4,11,0.00,,,0.00,WUHU216WMR968SP,2013-08-02 17:28:00,
2013-08-02 13:33:00,83.5,23.2,29.80,WNW,297,2.2,4.5,11,0.00,,,0.00,WUHU216WMR968SP,2013-08-02 17:33:00,
2013-08-02 13:38:00,83.3,29.0,29.80,NW,307,0.0,5.4,14,0.00,,,0.00,WUHU216WMR968SP,2013-08-02 17:38:00,
2013-08-02 13:43:00,83.3,29.0,29.80,West,268,2.2,8.3,14,0.00,,,0.00,WUHU216WMR968SP,2013-08-02 17:43:00,
2013-08-02 13:48:00,82.8,28.6,29.80,WNW,297,2.7,8.3,14,0.00,,,0.00,WUHU216WMR968SP,2013-08-02 17:48:00,
2013-08-02 13:53:00,83.1,28.9,29.80,WNW,303,4.0,8.7,14,0.00,,,0.00,WUHU216WMR968SP,2013-08-02 17:53:00,
2013-08-02 13:58:00,84.0,29.6,29.77,West,261,0.0,8.7,14,0.00,,,0.00,WUHU216WMR968SP,2013-08-02 17:58:00,
2013-08-02 14:03:00,84.0,23.6,29.77,North,3,0.0,6.3,11,0.00,,,0.00,WUHU216WMR968SP,2013-08-02 18:03:00,
2013-08-02 14:08:00,83.3,23.0,29.77,West,274,0.0,6.3,11,0.00,,,0.00,WUHU216WMR968SP,2013-08-02 18:08:00,
2013-08-02 14:13:00,83.8,23.4,29.77,NW,309,4.9,6.3,11,0.00,,,0.00,WUHU216WMR968SP,2013-08-02 18:13:00,
2013-08-02 14:18:00,84.7,24.1,29.77,WNW,303,2.7,6.3,11,0.00,,,0.00,WUHU216WMR968SP,2013-08-02 18:18:00,
2013-08-02 14:23:00,85.8,25.0,29.80,West,266,3.1,7.2,11,0.00,,,0.00,WUHU216WMR968SP,2013-08-02 18:23:00,
2013-08-02 14:28:00,86.4,17.8,29.80,WNW,296,3.1,7.2,8,0.00,,,0.00,WUHU216WMR968SP,2013-08-02 18:28:00,
2013-08-02 14:33:00,84.6,16.4,29.80,NNW,341,0.0,6.3,8,0.00,,,0.00,WUHU216WMR968SP,2013-08-02 18:33:00,
2013-08-02 14:38:00,83.7,18.5,29.80,NW,312,3.1,5.8,9,0.00,,,0.00,WUHU216WMR968SP,2013-08-02 18:38:00,
2013-08-02 14:43:00,83.8,18.6,29.77,NNW,329,2.7,5.8,9,0.00,,,0.00,WUHU216WMR968SP,2013-08-02 18:43:00,
2013-08-02 14:48:00,85.1,16.8,29.77,NW,323,3.1,7.2,8,0.00,,,0.00,WUHU216WMR968SP,2013-08-02 18:48:00,
2013-08-02 14:53:00,85.8,17.3,29.77,West,281,0.0,7.2,8,0.00,,,0.00,WUHU216WMR968SP,2013-08-02 18:53:00,
2013-08-02 14:58:00,85.6,10.9,29.77,WNW,299,2.7,5.8,6,0.00,,,0.00,WUHU216WMR968SP,2013-08-02 18:58:00,
2013-08-02 15:03:00,85.8,11.0,29.77,West,279,2.7,6.3,6,0.00,,,0.00,WUHU216WMR968SP,2013-08-02 19:03:00,
2013-08-02 15:08:00,85.6,10.9,29.77,SW,233,4.0,8.3,6,0.00,,,0.00,WUHU216WMR968SP,2013-08-02 19:08:00,
2013-08-02 15:13:00,85.6,10.9,29.77,NW,305,5.8,8.3,6,0.00,,,0.00,WUHU216WMR968SP,2013-08-02 19:13:00,
2013-08-02 15:18:00,86.0,11.1,29.77,WSW,251,5.4,8.7,6,0.00,,,0.00,WUHU216WMR968SP,2013-08-02 19:18:00,
2013-08-02 15:23:00,85.8,11.0,29.77,West,266,3.6,8.7,6,0.00,,,0.00,WUHU216WMR968SP,2013-08-02 19:23:00,
2013-08-02 15:28:00,86.2,11.3,29.77,WNW,284,4.0,8.3,6,0.00,,,0.00,WUHU216WMR968SP,2013-08-02 19:28:00,
2013-08-02 15:33:00,86.4,11.4,29.77,NW,311,2.2,8.3,6,0.00,,,0.00,WUHU216WMR968SP,2013-08-02 19:33:00,
2013-08-02 15:38:00,86.9,11.8,29.77,WNW,288,3.6,6.7,6,0.00,,,0.00,WUHU216WMR968SP,2013-08-02 19:38:00,
2013-08-02 15:43:00,87.6,12.3,29.77,West,274,4.5,7.6,6,0.00,,,0.00,WUHU216WMR968SP,2013-08-02 19:43:00,
2013-08-02 15:48:00,88.2,9.1,29.77,WNW,300,3.6,8.1,5,0.00,,,0.00,WUHU216WMR968SP,2013-08-02 19:48:00,
2013-08-02 15:53:00,87.1,11.9,29.80,West,270,4.0,8.1,6,0.00,,,0.00,WUHU216WMR968SP,2013-08-02 19:53:00,
2013-08-02 15:58:00,86.4,-0.6,29.80,NNW,327,2.2,7.6,3,0.00,,,0.00,WUHU216WMR968SP,2013-08-02 19:58:00,
2013-08-02 16:03:00,86.2,-0.7,29.80,SSW,204,3.1,7.6,3,0.00,,,0.00,WUHU216WMR968SP,2013-08-02 20:03:00,
2013-08-02 16:08:00,85.6,-1.1,29.80,West,277,4.5,8.7,3,0.00,,,0.00,WUHU216WMR968SP,2013-08-02 20:08:00,
2013-08-02 16:13:00,85.6,-1.1,29.80,NNW,328,2.7,8.7,3,0.00,,,0.00,WUHU216WMR968SP,2013-08-02 20:13:00,
2013-08-02 16:18:00,85.5,-1.2,29.80,NW,320,0.0,7.6,3,0.00,,,0.00,WUHU216WMR968SP,2013-08-02 20:18:00,
2013-08-02 16:23:00,84.6,10.1,29.80,NNW,338,4.5,8.1,6,0.00,,,0.00,WUHU216WMR968SP,2013-08-02 20:23:00,
2013-08-02 16:28:00,84.6,-1.8,29.77,NW,313,4.0,8.7,3,0.00,,,0.00,WUHU216WMR968SP,2013-08-02 20:28:00,
2013-08-02 16:33:00,84.4,-2.0,29.77,NNW,334,5.8,9.6,3,0.00,,,0.00,WUHU216WMR968SP,2013-08-02 20:33:00,
2013-08-02 16:38:00,84.9,-1.6,29.77,West,272,2.2,9.6,3,0.00,,,0.00,WUHU216WMR968SP,2013-08-02 20:38:00,
2013-08-02 16:43:00,85.6,-1.1,29.77,WNW,283,4.5,7.2,3,0.00,,,0.00,WUHU216WMR968SP,2013-08-02 20:43:00,
2013-08-02 16:48:00,86.2,-0.7,29.77,West,274,5.4,8.3,3,0.00,,,0.00,WUHU216WMR968SP,2013-08-02 20:48:00,
2013-08-02 16:53:00,86.5,-0.5,29.77,West,264,4.5,8.7,3,0.00,,,0.00,WUHU216WMR968SP,2013-08-02 20:53:00,
2013-08-02 16:58:00,86.4,-0.6,29.77,WNW,284,5.8,8.7,3,0.00,,,0.00,WUHU216WMR968SP,2013-08-02 20:58:00,
2013-08-02 17:03:00,86.9,-0.3,29.77,West,281,2.2,8.3,3,0.00,,,0.00,WUHU216WMR968SP,2013-08-02 21:03:00,
2013-08-02 17:08:00,87.1,-0.1,29.77,NW,310,4.9,9.2,3,0.00,,,0.00,WUHU216WMR968SP,2013-08-02 21:08:00,
2013-08-02 17:13:00,87.1,-0.1,29.80,WNW,282,4.5,9.2,3,0.00,,,0.00,WUHU216WMR968SP,2013-08-02 21:13:00,
2013-08-02 17:18:00,87.6,0.2,29.80,West,279,5.4,8.1,3,0.00,,,0.00,WUHU216WMR968SP,2013-08-02 21:18:00,
2013-08-02 17:23:00,88.2,0.6,29.80,West,265,4.5,8.7,3,0.00,,,0.00,WUHU216WMR968SP,2013-08-02 21:23:00,
2013-08-02 17:28:00,88.2,0.6,29.80,WNW,293,7.2,10.5,3,0.00,,,0.00,WUHU216WMR968SP,2013-08-02 21:28:00,
2013-08-02 17:33:00,86.9,-0.3,29.80,WNW,299,4.9,10.5,3,0.00,,,0.00,WUHU216WMR968SP,2013-08-02 21:33:00,
2013-08-02 17:38:00,87.6,0.2,29.80,NW,319,6.7,8.7,3,0.00,,,0.00,WUHU216WMR968SP,2013-08-02 21:38:00,
2013-08-02 17:43:00,88.7,0.9,29.77,WNW,295,5.4,8.7,3,0.00,,,0.00,WUHU216WMR968SP,2013-08-02 21:43:00,
2013-08-02 17:48:00,90.0,-3.1,29.77,West,278,5.4,8.7,2,0.00,,,0.00,WUHU216WMR968SP,2013-08-02 21:48:00,
2013-08-02 17:53:00,90.9,-2.5,29.77,West,267,4.0,8.7,2,0.00,,,0.00,WUHU216WMR968SP,2013-08-02 21:53:00,
2013-08-02 17:58:00,91.2,-2.3,29.80,NNW,343,5.4,8.3,2,0.00,,,0.00,WUHU216WMR968SP,2013-08-02 21:58:00,
2013-08-02 18:03:00,91.2,-2.3,29.80,West,280,5.8,8.3,2,0.00,,,0.00,WUHU216WMR968SP,2013-08-02 22:03:00,
2013-08-02 18:08:00,91.6,-2.1,29.80,WNW,293,3.1,8.1,2,0.00,,,0.00,WUHU216WMR968SP,2013-08-02 22:08:00,
2013-08-02 18:13:00,91.8,-2.0,29.80,West,263,4.0,7.6,2,0.00,,,0.00,WUHU216WMR968SP,2013-08-02 22:13:00,
2013-08-02 18:18:00,92.5,-1.5,29.80,WNW,301,4.0,8.3,2,0.00,,,0.00,WUHU216WMR968SP,2013-08-02 22:18:00,
2013-08-02 18:23:00,92.1,-1.8,29.80,West,268,5.4,8.3,2,0.00,,,0.00,WUHU216WMR968SP,2013-08-02 22:23:00,
2013-08-02 18:28:00,92.7,-1.4,29.80,WNW,299,5.4,8.7,2,0.00,,,0.00,WUHU216WMR968SP,2013-08-02 22:28:00,
2013-08-02 18:33:00,92.7,-1.4,29.80,WNW,292,4.9,8.7,2,0.00,,,0.00,WUHU216WMR968SP,2013-08-02 22:33:00,
2013-08-02 18:38:00,92.3,-1.6,29.80,WNW,292,3.6,8.1,2,0.00,,,0.00,WUHU216WMR968SP,2013-08-02 22:38:00,